Time;durP1;ratioP1;P1;durP2;ratioP2;P2;SDS_P1;SDS_P2;PMS_P1;PMS_P2;Temp;Humidity;BMP_temperature;BMP_pressure;BME280_temperature;BME280_humidity;BME280_pressure;Samples;Min_cycle;Max_cycle;Signal;HPM_P1;HPM_P2
2022/11/24 00:01:31;;;;;;;2.2;1.7;;;;;;;;;;;;;
2022/11/24 00:03:56;;;;;;;3.2;1.6;;;;;;;;;;;;;
2022/11/24 00:06:21;;;;;;;1.6;1.5;;;;;;;;;;;;;
2022/11/24 00:08:46;;;;;;;1.6;1.4;;;;;;;;;;;;;
2022/11/24 00:11:21;;;;;;;1.4;1.3;;;;;;;;;;;;;
2022/11/24 00:13:50;;;;;;;2.2;1.2;;;;;;;;;;;;;
2022/11/24 00:16:22;;;;;;;3.2;1.9;;;;;;;;;;;;;
2022/11/24 00:18:48;;;;;;;1.7;1.4;;;;;;;;;;;;;
2022/11/24 00:21:16;;;;;;;1.6;1.1;;;;;;;;;;;;;
2022/11/24 00:23:45;;;;;;;1.8;1.1;;;;;;;;;;;;;
2022/11/24 00:26:10;;;;;;;1.5;1.2;;;;;;;;;;;;;
2022/11/24 00:28:35;;;;;;;2;1.3;;;;;;;;;;;;;
2022/11/24 00:31:05;;;;;;;2.6;1.5;;;;;;;;;;;;;
2022/11/24 00:33:32;;;;;;;1.6;1;;;;;;;;;;;;;
2022/11/24 00:35:57;;;;;;;0.9;0.9;;;;;;;;;;;;;
2022/11/24 00:38:23;;;;;;;1.2;0.9;;;;;;;;;;;;;
2022/11/24 00:40:48;;;;;;;1.7;1.2;;;;;;;;;;;;;
2022/11/24 00:43:14;;;;;;;0.9;0.9;;;;;;;;;;;;;
2022/11/24 00:45:39;;;;;;;1;1;;;;;;;;;;;;;
2022/11/24 00:48:05;;;;;;;1.9;1.2;;;;;;;;;;;;;
2022/11/24 00:50:30;;;;;;;2.7;1.8;;;;;;;;;;;;;
2022/11/24 00:52:55;;;;;;;2.3;1.4;;;;;;;;;;;;;
2022/11/24 00:55:21;;;;;;;1.8;1.5;;;;;;;;;;;;;
2022/11/24 00:57:46;;;;;;;1.9;1.3;;;;;;;;;;;;;
2022/11/24 01:00:13;;;;;;;1.9;1.6;;;;;;;;;;;;;
2022/11/24 01:02:37;;;;;;;2.1;1.9;;;;;;;;;;;;;
2022/11/24 01:05:03;;;;;;;2.6;1.4;;;;;;;;;;;;;
2022/11/24 01:07:28;;;;;;;1.8;1.4;;;;;;;;;;;;;
2022/11/24 01:09:53;;;;;;;1.9;1.6;;;;;;;;;;;;;
2022/11/24 01:12:18;;;;;;;1.4;1.2;;;;;;;;;;;;;
2022/11/24 01:14:43;;;;;;;1.5;1.2;;;;;;;;;;;;;
2022/11/24 01:17:10;;;;;;;1.2;1.1;;;;;;;;;;;;;
2022/11/24 01:19:35;;;;;;;2.3;0.9;;;;;;;;;;;;;
2022/11/24 01:22:01;;;;;;;1.9;1.1;;;;;;;;;;;;;
2022/11/24 01:24:26;;;;;;;1.1;0.9;;;;;;;;;;;;;
2022/11/24 01:26:52;;;;;;;1.1;1;;;;;;;;;;;;;
2022/11/24 01:29:17;;;;;;;1.3;1.1;;;;;;;;;;;;;
2022/11/24 01:31:42;;;;;;;0.9;0.9;;;;;;;;;;;;;
2022/11/24 01:34:07;;;;;;;0.9;0.7;;;;;;;;;;;;;
2022/11/24 01:36:34;;;;;;;1.1;0.6;;;;;;;;;;;;;
2022/11/24 01:38:59;;;;;;;0.7;0.5;;;;;;;;;;;;;
2022/11/24 01:41:25;;;;;;;0.6;0.6;;;;;;;;;;;;;
2022/11/24 01:43:50;;;;;;;0.7;0.5;;;;;;;;;;;;;
2022/11/24 01:46:15;;;;;;;0.9;0.6;;;;;;;;;;;;;
2022/11/24 01:48:41;;;;;;;1.3;0.8;;;;;;;;;;;;;
2022/11/24 01:51:05;;;;;;;1.2;0.7;;;;;;;;;;;;;
2022/11/24 01:53:30;;;;;;;0.8;0.8;;;;;;;;;;;;;
2022/11/24 01:55:55;;;;;;;0.6;0.6;;;;;;;;;;;;;
2022/11/24 01:58:22;;;;;;;2.7;0.9;;;;;;;;;;;;;
2022/11/24 02:00:47;;;;;;;1.5;0.8;;;;;;;;;;;;;
2022/11/24 02:03:13;;;;;;;1.2;0.6;;;;;;;;;;;;;
2022/11/24 02:05:39;;;;;;;0.9;0.6;;;;;;;;;;;;;
2022/11/24 02:08:06;;;;;;;0.9;0.7;;;;;;;;;;;;;
2022/11/24 02:10:31;;;;;;;1.3;0.9;;;;;;;;;;;;;
2022/11/24 02:12:56;;;;;;;0.8;0.7;;;;;;;;;;;;;
2022/11/24 02:15:21;;;;;;;0.9;0.7;;;;;;;;;;;;;
2022/11/24 02:17:46;;;;;;;0.6;0.6;;;;;;;;;;;;;
2022/11/24 02:20:15;;;;;;;2.1;0.9;;;;;;;;;;;;;
2022/11/24 02:22:44;;;;;;;2.2;0.7;;;;;;;;;;;;;
2022/11/24 02:25:09;;;;;;;1.2;0.7;;;;;;;;;;;;;
2022/11/24 02:27:34;;;;;;;0.9;0.8;;;;;;;;;;;;;
2022/11/24 02:29:59;;;;;;;1.2;0.7;;;;;;;;;;;;;
2022/11/24 02:32:24;;;;;;;1.8;1.1;;;;;;;;;;;;;
2022/11/24 02:34:49;;;;;;;0.9;0.7;;;;;;;;;;;;;
2022/11/24 02:37:16;;;;;;;0.7;0.7;;;;;;;;;;;;;
2022/11/24 02:39:41;;;;;;;1;0.9;;;;;;;;;;;;;
2022/11/24 03:51:51;;;;;;;1.1;0.7;;;;;;;;;;;;;
2022/11/24 03:54:16;;;;;;;2.1;1.2;;;;;;;;;;;;;
2022/11/24 03:56:42;;;;;;;0.9;0.8;;;;;;;;;;;;;
2022/11/24 03:59:07;;;;;;;0.8;0.8;;;;;;;;;;;;;
2022/11/24 04:03:26;;;;;;;1.8;0.9;;;;;;;4.89;96.58301;933.253;;;;
2022/11/24 04:05:54;;;;;;;1.8;1.1;;;;;;;4.79;96.62793;933.3775;;;;
2022/11/24 04:08:20;;;;;;;1.2;0.8;;;;;;;4.88;96.5127;933.4288;;;;
2022/11/24 04:10:48;;;;;;;1.1;0.6;;;;;;;4.67;96.87207;933.2729;;;;
2022/11/24 04:13:13;;;;;;;1.8;0.8;;;;;;;4.77;96.80371;933.2919;;;;
2022/11/24 04:15:39;;;;;;;0.7;0.6;;;;;;;4.91;96.53027;933.3268;;;;
2022/11/24 04:18:04;;;;;;;1;0.6;;;;;;;4.97;96.03809;933.3147;;;;
2022/11/24 04:20:29;;;;;;;2.7;0.7;;;;;;;4.98;95.83691;933.4112;;;;
2022/11/24 04:22:59;;;;;;;1.7;0.8;;;;;;;4.71;95.84375;933.3804;;;;
2022/11/24 04:25:53;;;;;;;1.9;0.9;;;;;;;4.76;96.09277;933.4557;;;;
2022/11/24 04:28:22;;;;;;;1.1;0.6;;;;;;;5.01;95.50488;933.5786;;;;
2022/11/24 04:30:47;;;;;;;1.9;1;;;;;;;5.08;95.49805;933.6686;;;;
2022/11/24 04:33:13;;;;;;;0.9;0.7;;;;;;;5.16;95.11035;933.6947;;;;
2022/11/24 04:35:40;;;;;;;1.5;0.7;;;;;;;5.14;94.57617;933.7867;;;;
2022/11/24 04:38:05;;;;;;;1.2;0.7;;;;;;;5.22;94.49121;933.8549;;;;
2022/11/24 04:40:32;;;;;;;1.3;0.8;;;;;;;5.17;94.30078;933.8622;;;;
2022/11/24 04:42:58;;;;;;;2.3;0.7;;;;;;;5.22;94.14355;933.897;;;;
2022/11/24 04:45:28;;;;;;;1.1;0.8;;;;;;;5.3;94.03711;933.9389;;;;
2022/11/24 04:47:53;;;;;;;1.9;0.7;;;;;;;5.37;93.7334;933.9821;;;;
2022/11/24 04:50:22;;;;;;;2.6;0.7;;;;;;;5.28;93.57129;934.019;;;;
2022/11/24 04:52:53;;;;;;;2;1.1;;;;;;;5.14;94.0127;933.8522;;;;
2022/11/24 04:55:20;;;;;;;1;0.7;;;;;;;5.08;94.38184;933.9542;;;;
2022/11/24 04:57:45;;;;;;;1.2;0.9;;;;;;;5.14;94.29297;933.9161;;;;
2022/11/24 05:00:21;;;;;;;1.3;0.8;;;;;;;4.95;94.7041;933.8365;;;;
2022/11/24 05:02:49;;;;;;;2;1.2;;;;;;;4.86;95.38184;933.9386;;;;
2022/11/24 05:05:14;;;;;;;2.1;1.1;;;;;;;4.86;95.37988;933.9252;;;;
2022/11/24 05:07:39;;;;;;;1.6;1.4;;;;;;;4.89;94.79297;933.9197;;;;
2022/11/24 05:12:38;;;;;;;1.8;1.5;;;;;;;4.82;94.5293;933.9929;;;;
2022/11/24 05:15:02;;;;;;;2.3;1.4;;;;;;;4.72;95.07031;934.0455;;;;
2022/11/24 05:17:30;;;;;;;4.3;2.4;;;;;;;4.63;96.0166;934.021;;;;
2022/11/24 05:19:57;;;;;;;2.2;1.5;;;;;;;4.56;96.62012;934.0293;;;;
2022/11/24 05:22:22;;;;;;;2.2;1.5;;;;;;;4.55;96.47168;934.0408;;;;
2022/11/24 05:24:48;;;;;;;1.7;1.2;;;;;;;4.58;96.5;934.0699;;;;
2022/11/24 05:27:17;;;;;;;1.3;1.2;;;;;;;4.57;95.88086;934.1967;;;;
2022/11/24 05:29:46;;;;;;;1.8;1.4;;;;;;;4.58;95.3291;934.2277;;;;
2022/11/24 05:32:11;;;;;;;2.6;1.2;;;;;;;4.57;94.11328;934.1967;;;;
2022/11/24 05:34:40;;;;;;;3.3;2.5;;;;;;;4.5;94.61523;934.2487;;;;
2022/11/24 05:37:07;;;;;;;1.8;1.5;;;;;;;4.47;94.56152;934.2595;;;;
2022/11/24 05:39:31;;;;;;;3.7;2.2;;;;;;;4.36;94.77637;934.3323;;;;
2022/11/24 05:41:59;;;;;;;4.3;2.5;;;;;;;4.21;95.30469;934.4345;;;;
2022/11/24 05:44:24;;;;;;;7.9;5.8;;;;;;;4.2;95.16504;934.3694;;;;
2022/11/24 05:46:51;;;;;;;5.3;3.8;;;;;;;4.13;96.3457;934.5292;;;;
2022/11/24 05:49:16;;;;;;;4.9;3.9;;;;;;;4.02;96.64355;934.5267;;;;
2022/11/24 05:51:45;;;;;;;5.5;3.6;;;;;;;4.09;95.80469;934.5239;;;;
2022/11/24 05:54:14;;;;;;;5;2.4;;;;;;;3.89;97.05469;934.5908;;;;
2022/11/24 05:56:39;;;;;;;2.6;2.4;;;;;;;3.93;96.74805;934.6516;;;;
2022/11/24 05:59:04;;;;;;;2.6;2;;;;;;;3.85;97;934.6447;;;;
2022/11/24 06:01:29;;;;;;;2.6;1.9;;;;;;;3.93;96.69043;934.7784;;;;
2022/11/24 06:03:56;;;;;;;4.7;2.9;;;;;;;3.97;96.21875;934.8278;;;;
2022/11/24 06:06:21;;;;;;;4.2;2.8;;;;;;;3.97;95.83496;934.811;;;;
2022/11/24 06:08:46;;;;;;;4.8;3.1;;;;;;;3.94;95.6709;934.9041;;;;
2022/11/24 06:11:21;;;;;;;4.5;2.9;;;;;;;3.79;96.68164;934.9178;;;;
2022/11/24 06:16:10;;;;;;;3.1;2.3;;;;;;;3.69;98.27734;934.8531;;;;
2022/11/24 06:18:35;;;;;;;4.4;2.7;;;;;;;3.63;98.92578;934.9158;;;;
2022/11/24 06:21:01;;;;;;;7.2;3.3;;;;;;;3.64;99.72754;934.8967;;;;
2022/11/24 06:23:26;;;;;;;6.9;2.9;;;;;;;3.7;100;934.811;;;;
2022/11/24 06:25:53;;;;;;;4.1;1.7;;;;;;;3.87;99.97168;934.7658;;;;
2022/11/24 06:28:18;;;;;;;3.6;1.9;;;;;;;3.98;99.2793;934.8642;;;;
2022/11/24 06:30:44;;;;;;;2.6;1.7;;;;;;;4.06;99.17285;934.7344;;;;
2022/11/24 06:33:09;;;;;;;3.3;1.8;;;;;;;4.1;98.96973;934.7938;;;;
2022/11/24 06:35:35;;;;;;;3.1;1.7;;;;;;;4.25;98.50977;934.7888;;;;
2022/11/24 06:38:20;;;;;;;4.6;2.6;;;;;;;4.34;97.75195;934.9015;;;;
2022/11/24 06:40:49;;;;;;;7.8;5.3;;;;;;;4.39;96.71582;934.9074;;;;
2022/11/24 06:43:17;;;;;;;8.4;4.7;;;;;;;4.38;96.4209;934.8717;;;;
2022/11/24 06:45:42;;;;;;;10.3;6.6;;;;;;;4.33;97.23242;934.9635;;;;
2022/11/24 06:48:11;;;;;;;11.2;5.6;;;;;;;4.37;96.7793;934.8755;;;;
2022/11/24 06:50:36;;;;;;;10;5.1;;;;;;;4.34;96.51465;934.9313;;;;
2022/11/24 06:53:04;;;;;;;13.3;7.5;;;;;;;4.31;96.06934;934.8848;;;;
2022/11/24 06:55:29;;;;;;;11.9;7.2;;;;;;;4.04;96.93066;934.985;;;;
2022/11/24 06:57:58;;;;;;;11.3;7.1;;;;;;;4.06;96.96875;934.8926;;;;
2022/11/24 07:00:23;;;;;;;12.6;7.6;;;;;;;4.09;96.8623;934.9338;;;;
2022/11/24 07:02:52;;;;;;;13.1;8.7;;;;;;;4.1;96.49316;935.0095;;;;
2022/11/24 07:05:17;;;;;;;14.6;8.3;;;;;;;3.95;96.56348;934.9847;;;;
2022/11/24 07:07:45;;;;;;;16.5;9.4;;;;;;;3.96;96.92285;934.9289;;;;
2022/11/24 07:10:10;;;;;;;15.2;9.5;;;;;;;3.89;97.56055;934.9988;;;;
2022/11/24 07:12:38;;;;;;;14.3;8.3;;;;;;;3.79;98.35645;934.9852;;;;
2022/11/24 07:15:03;;;;;;;18.7;10.6;;;;;;;3.81;98.74316;935.0388;;;;
2022/11/24 07:17:33;;;;;;;19.2;12.2;;;;;;;3.77;98.90137;935.0483;;;;
2022/11/24 07:19:58;;;;;;;18.4;11.1;;;;;;;3.82;99.23926;935.1272;;;;
2022/11/24 07:22:26;;;;;;;19.8;12.3;;;;;;;3.88;99.25391;935.1266;;;;
2022/11/24 07:24:51;;;;;;;19.2;11.6;;;;;;;4.38;99.49609;935.0642;;;;
2022/11/24 07:27:20;;;;;;;13.8;10.1;;;;;;;5.07;96.12793;935.038;;;;
2022/11/24 07:29:45;;;;;;;9.5;6.9;;;;;;;5.55;92.88379;935.0255;;;;
2022/11/24 07:32:11;;;;;;;10.1;6.8;;;;;;;5.83;89.68066;935.0648;;;;
2022/11/24 07:34:36;;;;;;;8.8;5.4;;;;;;;6.66;88.87012;935.0949;;;;
2022/11/24 07:37:02;;;;;;;8.5;5.5;;;;;;;7.34;83.66309;935.1283;;;;
2022/11/24 07:39:27;;;;;;;9.5;5.5;;;;;;;7.87;80.17969;935.092;;;;
2022/11/24 07:41:54;;;;;;;9.3;6.3;;;;;;;8.58;76.03711;935.1364;;;;
2022/11/24 07:44:20;;;;;;;10.3;6.4;;;;;;;9.02;75.39844;935.1016;;;;
2022/11/24 07:46:50;;;;;;;10.9;7.1;;;;;;;9.58;72.50195;934.984;;;;
2022/11/24 07:49:13;;;;;;;9.8;5.7;;;;;;;10.35;70.28027;935.0659;;;;
2022/11/24 07:51:38;;;;;;;4.7;3;;;;;;;10.89;67.86426;935.0823;;;;
2022/11/24 07:54:04;;;;;;;5.4;2.6;;;;;;;11.1;64.94727;935.1142;;;;
2022/11/24 07:56:29;;;;;;;3.2;1.8;;;;;;;10.82;65.06543;935.1092;;;;
2022/11/24 07:58:54;;;;;;;2.9;2;;;;;;;10.71;64.52441;935.0966;;;;
2022/11/24 08:01:22;;;;;;;2.6;1.4;;;;;;;10.81;64.04785;935.0292;;;;
2022/11/24 08:03:47;;;;;;;1.2;1;;;;;;;10.02;65.00293;935.0833;;;;
2022/11/24 08:06:17;;;;;;;2.4;1.2;;;;;;;9.49;67.80371;934.9419;;;;
2022/11/24 08:08:41;;;;;;;1.7;1.6;;;;;;;9.2;69.08008;934.9381;;;;
2022/11/24 08:11:07;;;;;;;1.4;0.9;;;;;;;8.86;71.5166;934.9361;;;;
2022/11/24 08:13:32;;;;;;;1.4;1.2;;;;;;;8.98;70.18164;934.9215;;;;
2022/11/24 08:16:02;;;;;;;1.6;1.3;;;;;;;8.73;71.0498;935.0034;;;;
2022/11/24 08:18:31;;;;;;;2.9;1.6;;;;;;;8.21;74.08789;935.079;;;;
2022/11/24 08:20:56;;;;;;;4.8;3.1;;;;;;;8.39;74.54004;934.9895;;;;
2022/11/24 08:23:23;;;;;;;7.8;5.2;;;;;;;8.38;77.70605;934.9141;;;;
2022/11/24 08:25:48;;;;;;;6.4;4.2;;;;;;;9.46;72.68555;934.8923;;;;
2022/11/24 08:28:16;;;;;;;3.5;2;;;;;;;11.01;66.67188;934.7946;;;;
2022/11/24 08:30:41;;;;;;;5.1;3;;;;;;;12.05;60.88574;934.8817;;;;
2022/11/24 08:33:07;;;;;;;4.5;2.3;;;;;;;11.98;62.03418;934.8752;;;;
2022/11/24 08:35:32;;;;;;;14;7.2;;;;;;;11.6;61.50879;934.92;;;;
2022/11/24 08:38:01;;;;;;;18.6;10.9;;;;;;;11.4;61.52637;934.9269;;;;
2022/11/24 08:40:25;;;;;;;4.9;3;;;;;;;10.59;64.47168;934.9199;;;;
2022/11/24 08:42:52;;;;;;;4;2.2;;;;;;;10.36;66.63965;935.0157;;;;
2022/11/24 08:45:17;;;;;;;4.2;2.2;;;;;;;10.07;67.28027;934.9755;;;;
2022/11/24 08:47:48;;;;;;;3.1;2.5;;;;;;;9.83;68.84863;935.0619;;;;
2022/11/24 08:50:19;;;;;;;2.5;2;;;;;;;9.61;69.7041;935.1328;;;;
2022/11/24 08:52:44;;;;;;;5.3;3.2;;;;;;;9.03;71.2373;935.0318;;;;
2022/11/24 08:55:10;;;;;;;4;2.4;;;;;;;8.7;72.97852;935.05;;;;
2022/11/24 08:57:34;;;;;;;8.5;5.9;;;;;;;8.69;74.33008;935.0419;;;;
2022/11/24 09:00:00;;;;;;;5.2;4.1;;;;;;;8.7;75.65039;935.0722;;;;
2022/11/24 09:02:25;;;;;;;3.6;1.5;;;;;;;8.73;73.6543;935.0542;;;;
2022/11/24 09:04:51;;;;;;;3.5;1.8;;;;;;;9.01;72.96191;934.963;;;;
2022/11/24 09:07:16;;;;;;;3.9;1.9;;;;;;;9.37;71.47461;934.9033;;;;
2022/11/24 09:09:42;;;;;;;4.3;1.7;;;;;;;9.55;71.68848;934.9662;;;;
2022/11/24 09:12:07;;;;;;;3.4;1.9;;;;;;;9.68;72.38086;934.9214;;;;
2022/11/24 09:14:35;;;;;;;3.5;1.8;;;;;;;9.52;72.68359;934.997;;;;
2022/11/24 09:17:00;;;;;;;4.4;1.6;;;;;;;9.45;73.35645;934.9908;;;;
2022/11/24 09:19:27;;;;;;;5.8;2.5;;;;;;;9.45;73.74316;934.9257;;;;
2022/11/24 09:21:52;;;;;;;2.6;1.6;;;;;;;9.26;74.47363;934.923;;;;
2022/11/24 09:24:17;;;;;;;3.9;1.5;;;;;;;9.3;73.33008;934.882;;;;
2022/11/24 09:26:42;;;;;;;3.1;1.7;;;;;;;9.36;73.53418;934.8309;;;;
2022/11/24 09:29:10;;;;;;;5.9;2.7;;;;;;;9.38;74.63086;934.8159;;;;
2022/11/24 09:31:35;;;;;;;5;2.5;;;;;;;9.33;75.05566;934.8298;;;;
2022/11/24 09:34:01;;;;;;;3.1;1.2;;;;;;;9.12;73.91504;934.8381;;;;
2022/11/24 09:36:26;;;;;;;2.4;1;;;;;;;9.11;74.65234;934.7896;;;;
2022/11/24 09:38:53;;;;;;;3.5;1.4;;;;;;;9.1;75.0957;934.8467;;;;
2022/11/24 09:41:18;;;;;;;1.8;1.3;;;;;;;9.13;74.46289;934.9597;;;;
2022/11/24 09:43:43;;;;;;;3.2;1.1;;;;;;;9.15;73.97656;935.0338;;;;
2022/11/24 09:46:08;;;;;;;3.5;1.2;;;;;;;9.07;72.70117;934.9639;;;;
2022/11/24 09:48:34;;;;;;;2.8;1.4;;;;;;;9.02;73.5;935.0246;;;;
2022/11/24 09:50:59;;;;;;;2.4;1.2;;;;;;;9.02;75.5918;935.0809;;;;
2022/11/24 09:53:25;;;;;;;3.6;2.3;;;;;;;9.06;74.64258;935.0694;;;;
2022/11/24 09:55:51;;;;;;;2.9;2;;;;;;;9.16;74.86621;935.1069;;;;
2022/11/24 09:58:16;;;;;;;1.8;1;;;;;;;9.2;72.18652;935.116;;;;
2022/11/24 10:00:42;;;;;;;2.4;1;;;;;;;9.18;71.14746;935.2628;;;;
2022/11/24 10:03:07;;;;;;;2.2;1;;;;;;;9.1;72.31738;935.3248;;;;
2022/11/24 10:05:32;;;;;;;2.4;1;;;;;;;8.91;72.51465;935.3869;;;;
2022/11/24 10:08:01;;;;;;;2.2;1.2;;;;;;;8.97;73.19531;935.4804;;;;
2022/11/24 10:10:31;;;;;;;1.5;1;;;;;;;9.04;72.8418;935.4393;;;;
2022/11/24 10:12:57;;;;;;;1.9;1.2;;;;;;;9.06;73.80176;935.4959;;;;
2022/11/24 10:15:30;;;;;;;3.8;1.6;;;;;;;8.8;73.73438;935.4893;;;;
2022/11/24 10:17:56;;;;;;;3.3;1.6;;;;;;;8.45;75.93555;935.5665;;;;
2022/11/24 10:20:21;;;;;;;5.4;3;;;;;;;8.67;78.04395;935.6442;;;;
2022/11/24 10:22:46;;;;;;;9.2;6.1;;;;;;;8.64;79.90234;935.6375;;;;
2022/11/24 10:25:13;;;;;;;8.4;5.8;;;;;;;8.86;80.47852;935.5514;;;;
2022/11/24 10:27:40;;;;;;;3.8;2.3;;;;;;;8.58;76.45898;935.4634;;;;
2022/11/24 10:30:05;;;;;;;4.5;2.5;;;;;;;8.1;77.58789;935.3777;;;;
2022/11/24 10:32:30;;;;;;;3.3;1.9;;;;;;;7.79;78.64453;935.4551;;;;
2022/11/24 10:34:56;;;;;;;2.8;2.1;;;;;;;7.81;79.78223;935.434;;;;
2022/11/24 10:37:21;;;;;;;3.8;2.4;;;;;;;7.68;81.07422;935.3822;;;;
2022/11/24 10:39:46;;;;;;;1.9;1.4;;;;;;;7.79;80.7998;935.3631;;;;
2022/11/24 10:42:11;;;;;;;3.8;1.6;;;;;;;7.93;78.90918;935.3641;;;;
2022/11/24 10:44:36;;;;;;;4.1;1.5;;;;;;;8.18;77.93359;935.3416;;;;
2022/11/24 10:47:03;;;;;;;4.2;1.4;;;;;;;8.4;78.68652;935.3839;;;;
2022/11/24 10:49:28;;;;;;;3.2;1.2;;;;;;;8.7;75.05957;935.3707;;;;
2022/11/24 10:51:53;;;;;;;4.1;2.3;;;;;;;8.99;73.99414;935.3979;;;;
2022/11/24 10:54:18;;;;;;;3.4;2;;;;;;;9.12;75.59961;935.4203;;;;
2022/11/24 10:56:46;;;;;;;3.1;1.8;;;;;;;9.23;74.22949;935.4773;;;;
2022/11/24 10:59:11;;;;;;;2.5;1.4;;;;;;;9.16;73.68262;935.5406;;;;
2022/11/24 11:01:41;;;;;;;2;1.1;;;;;;;8.85;74.1875;935.5672;;;;
2022/11/24 11:04:05;;;;;;;2.8;1.3;;;;;;;8.78;74.91406;935.5931;;;;
2022/11/24 11:06:30;;;;;;;3.7;1.2;;;;;;;8.87;76.44141;935.6127;;;;
2022/11/24 11:08:57;;;;;;;1.7;1.1;;;;;;;9.01;74.88477;935.6047;;;;
2022/11/24 11:11:23;;;;;;;2.8;1.2;;;;;;;8.61;76.28418;935.4975;;;;
2022/11/24 11:13:50;;;;;;;2.1;1.2;;;;;;;8.47;77.14355;935.4779;;;;
2022/11/24 11:16:18;;;;;;;3.2;1.8;;;;;;;8.41;77.84766;935.4403;;;;
2022/11/24 11:18:43;;;;;;;3.5;2.1;;;;;;;8.31;78.87793;935.5753;;;;
2022/11/24 11:21:08;;;;;;;3.7;2.2;;;;;;;8.35;78.29199;935.5594;;;;
2022/11/24 11:23:33;;;;;;;4.4;1.8;;;;;;;8.4;79.14063;935.6108;;;;
2022/11/24 11:25:59;;;;;;;3.5;1.9;;;;;;;8.37;80.54492;935.6716;;;;
2022/11/24 11:28:24;;;;;;;2.7;1.9;;;;;;;8.48;81.25781;935.5748;;;;
2022/11/24 11:30:49;;;;;;;4.4;2.3;;;;;;;8.58;81.33398;935.6872;;;;
2022/11/24 11:33:17;;;;;;;3.4;2.6;;;;;;;8.47;81.62207;935.7819;;;;
2022/11/24 11:35:42;;;;;;;5.4;2.9;;;;;;;8.31;80.19238;935.7965;;;;
2022/11/24 11:38:07;;;;;;;6.7;3.5;;;;;;;8.29;79.23438;935.812;;;;
2022/11/24 11:40:32;;;;;;;7.5;3.9;;;;;;;8.37;81.95313;935.7667;;;;
2022/11/24 11:43:02;;;;;;;3.5;2;;;;;;;8.24;82.46289;935.7623;;;;
2022/11/24 11:45:28;;;;;;;3.4;2.3;;;;;;;8.09;83.11621;935.8273;;;;
2022/11/24 11:47:53;;;;;;;3.2;2.5;;;;;;;8.08;83.18262;935.8914;;;;
2022/11/24 11:50:19;;;;;;;3.6;1.9;;;;;;;8.19;83.08887;935.8699;;;;
2022/11/24 11:52:44;;;;;;;3.6;1.6;;;;;;;8.26;82.75098;935.8458;;;;
2022/11/24 11:55:12;;;;;;;3;1.7;;;;;;;8.19;82.42969;935.9357;;;;
2022/11/24 11:57:42;;;;;;;3.2;2.1;;;;;;;7.9;83.47559;935.8566;;;;
2022/11/24 12:00:08;;;;;;;3.5;2.6;;;;;;;8;83.5625;935.9746;;;;
2022/11/24 12:02:33;;;;;;;6.1;2.8;;;;;;;7.98;83.19629;936.0172;;;;
2022/11/24 12:04:58;;;;;;;4.3;2.5;;;;;;;8.16;83.77832;936.1519;;;;
2022/11/24 12:07:29;;;;;;;4;2.2;;;;;;;8.09;84.46777;936.2729;;;;
2022/11/24 12:09:54;;;;;;;4.3;2.3;;;;;;;8.04;85.02441;936.334;;;;
2022/11/24 12:12:19;;;;;;;3;1.8;;;;;;;8.23;84.41504;936.3641;;;;
2022/11/24 12:14:44;;;;;;;4.1;2.4;;;;;;;8.42;84.02051;936.3286;;;;
2022/11/24 12:17:15;;;;;;;7.2;4.5;;;;;;;8.66;84.54395;936.2734;;;;
2022/11/24 12:19:40;;;;;;;4.7;3.1;;;;;;;9.11;83.00488;936.131;;;;
2022/11/24 12:22:05;;;;;;;7.5;3.4;;;;;;;9.36;79.41016;936.2159;;;;
2022/11/24 12:24:30;;;;;;;3.8;2;;;;;;;8.9;76.99316;936.2704;;;;
2022/11/24 12:26:56;;;;;;;4.2;2.2;;;;;;;8.76;80.23242;936.2542;;;;
2022/11/24 12:29:22;;;;;;;3;1.8;;;;;;;8.96;79.97168;936.2727;;;;
2022/11/24 12:31:46;;;;;;;2.2;1.3;;;;;;;9.06;79.78711;936.3092;;;;
2022/11/24 12:34:11;;;;;;;2.4;1.3;;;;;;;9.02;80.46387;936.3747;;;;
2022/11/24 12:36:36;;;;;;;3.9;3.6;;;;;;;9.13;80.21094;936.3743;;;;
2022/11/24 12:39:01;;;;;;;2.1;1.4;;;;;;;9.17;78.27051;936.3113;;;;
2022/11/24 12:41:30;;;;;;;2.2;1.6;;;;;;;9.38;78.61621;936.2406;;;;
2022/11/24 12:43:55;;;;;;;3.7;1.2;;;;;;;9.31;77.8877;936.2352;;;;
2022/11/24 12:46:20;;;;;;;1.8;0.8;;;;;;;9.33;75.98926;936.1941;;;;
2022/11/24 12:48:45;;;;;;;0.9;0.5;;;;;;;8.97;76.3125;936.2712;;;;
2022/11/24 12:51:10;;;;;;;1;0.6;;;;;;;9.13;77.74121;936.2863;;;;
2022/11/24 12:53:38;;;;;;;2.1;0.7;;;;;;;9.09;77.5166;936.2563;;;;
2022/11/24 12:56:03;;;;;;;2.6;1.2;;;;;;;9.22;76.55078;936.1708;;;;
2022/11/24 12:58:29;;;;;;;2.1;1;;;;;;;9.29;76.78906;936.1611;;;;
2022/11/24 13:00:56;;;;;;;0.7;0.5;;;;;;;9.28;76.33398;936.2794;;;;
2022/11/24 13:03:23;;;;;;;2.3;1.3;;;;;;;9;79.70703;936.3192;;;;
2022/11/24 13:05:51;;;;;;;3.7;1.2;;;;;;;8.69;79.63965;936.3453;;;;
2022/11/24 13:08:16;;;;;;;2.7;1.2;;;;;;;8.44;78.99023;936.4288;;;;
2022/11/24 13:10:41;;;;;;;2.6;1.2;;;;;;;8.34;82.06152;936.5247;;;;
2022/11/24 13:13:10;;;;;;;1.7;1.2;;;;;;;8.47;81.82422;936.534;;;;
2022/11/24 13:15:38;;;;;;;2.3;1.1;;;;;;;8.19;82.53223;936.4615;;;;
2022/11/24 13:18:03;;;;;;;2.6;1.1;;;;;;;8.04;83.50391;936.5069;;;;
2022/11/24 13:20:28;;;;;;;3.1;1.3;;;;;;;8.17;82.80176;936.5231;;;;
2022/11/24 13:22:53;;;;;;;2.1;1.6;;;;;;;8.22;82.7666;936.4925;;;;
2022/11/24 13:25:18;;;;;;;3.4;2.2;;;;;;;8.39;81.50391;936.4579;;;;
2022/11/24 13:27:44;;;;;;;2.6;1.7;;;;;;;8.73;79.87305;936.4402;;;;
2022/11/24 13:30:11;;;;;;;2.3;1.5;;;;;;;8.27;80.23047;936.54;;;;
2022/11/24 13:32:39;;;;;;;4.6;2.8;;;;;;;8.41;81.36035;936.5197;;;;
2022/11/24 13:35:08;;;;;;;4.5;3.1;;;;;;;8.27;81.90039;936.5233;;;;
2022/11/24 13:37:35;;;;;;;2.6;2.1;;;;;;;8.4;80.96094;936.5176;;;;
2022/11/24 13:39:58;;;;;;;2;1.6;;;;;;;8.64;80.4248;936.4978;;;;
2022/11/24 13:42:24;;;;;;;2.6;1.6;;;;;;;9;78.40039;936.5203;;;;
2022/11/24 13:44:50;;;;;;;2.4;1.8;;;;;;;8.89;77.87891;936.4888;;;;
2022/11/24 13:47:15;;;;;;;2.9;1.6;;;;;;;8.77;77.08301;936.4661;;;;
2022/11/24 13:49:41;;;;;;;3;1.6;;;;;;;8.56;77.48926;936.4955;;;;
2022/11/24 13:52:06;;;;;;;7.6;4.5;;;;;;;8.52;78.33496;936.5212;;;;
2022/11/24 13:54:31;;;;;;;4.7;3.1;;;;;;;8.52;79.19824;936.553;;;;
2022/11/24 13:56:57;;;;;;;2.7;2.1;;;;;;;8.43;80.41992;936.6167;;;;
2022/11/24 13:59:22;;;;;;;17.2;11.5;;;;;;;8.52;80.74414;936.6205;;;;
2022/11/24 14:01:48;;;;;;;9.3;6.3;;;;;;;8.36;79.98633;936.6051;;;;
2022/11/24 14:04:13;;;;;;;5.3;4.4;;;;;;;8.44;80.35547;936.6241;;;;
2022/11/24 14:06:40;;;;;;;6.5;3.9;;;;;;;8.47;80.07617;936.6547;;;;
2022/11/24 14:09:05;;;;;;;3.9;2.1;;;;;;;8.74;79.95508;936.565;;;;
2022/11/24 14:11:30;;;;;;;4.5;1.8;;;;;;;8.8;78.49902;936.4802;;;;
2022/11/24 14:13:57;;;;;;;2.3;1.7;;;;;;;8.79;78.81641;936.572;;;;
2022/11/24 14:16:26;;;;;;;3.4;1.4;;;;;;;9.12;78.87598;936.4163;;;;
2022/11/24 14:18:55;;;;;;;2.6;1.3;;;;;;;10.23;73.06641;936.507;;;;
2022/11/24 14:21:20;;;;;;;2.6;1.7;;;;;;;11.22;70.26074;936.5047;;;;
2022/11/24 14:23:45;;;;;;;2.8;2;;;;;;;11.78;67.61523;936.5471;;;;
2022/11/24 14:26:14;;;;;;;4.2;2.3;;;;;;;11.59;66.36035;936.5157;;;;
2022/11/24 14:28:39;;;;;;;3.4;2;;;;;;;12.13;67.42871;936.5577;;;;
2022/11/24 14:31:04;;;;;;;5.8;3.3;;;;;;;12.8;63.16016;936.5605;;;;
2022/11/24 14:33:29;;;;;;;2.2;2;;;;;;;12.42;63.62109;936.5439;;;;
2022/11/24 14:35:56;;;;;;;2.4;2.2;;;;;;;11.84;66.27344;936.6169;;;;
2022/11/24 14:38:22;;;;;;;2.5;1.5;;;;;;;11.3;68.68359;936.5576;;;;
2022/11/24 14:40:49;;;;;;;3.3;1.8;;;;;;;10.68;71.01953;936.6978;;;;
2022/11/24 14:43:14;;;;;;;3.3;2.1;;;;;;;10.24;73.3418;936.6351;;;;
2022/11/24 14:45:41;;;;;;;2.1;1.8;;;;;;;9.89;74.81055;936.6919;;;;
2022/11/24 14:48:08;;;;;;;2.7;2.2;;;;;;;9.71;76.12598;936.7892;;;;
2022/11/24 14:50:33;;;;;;;3.2;2.1;;;;;;;9.57;76.61133;936.7604;;;;
2022/11/24 14:52:58;;;;;;;2.3;2;;;;;;;9.43;77.19141;936.8693;;;;
2022/11/24 14:55:23;;;;;;;1.7;1.6;;;;;;;9.32;77.02246;936.9147;;;;
2022/11/24 14:57:48;;;;;;;2;1.5;;;;;;;9.13;76;936.9041;;;;
2022/11/24 15:00:18;;;;;;;3;2;;;;;;;8.93;77.40723;936.9631;;;;
2022/11/24 15:02:46;;;;;;;4.1;2.7;;;;;;;8.73;79.31641;936.9626;;;;
2022/11/24 15:05:08;;;;;;;5.7;3;;;;;;;8.62;79.8418;936.9498;;;;
2022/11/24 15:07:33;;;;;;;2.4;1.7;;;;;;;8.34;79.37012;937.0372;;;;
2022/11/24 15:09:59;;;;;;;2.3;2;;;;;;;8.25;80.13672;937.0187;;;;
2022/11/24 15:12:33;;;;;;;2.6;2.1;;;;;;;8.21;80.27734;937.0911;;;;
2022/11/24 15:14:59;;;;;;;8.3;5.5;;;;;;;8.05;81.54102;937.085;;;;
2022/11/24 15:17:26;;;;;;;5.1;3.1;;;;;;;7.84;82.3623;937.1858;;;;
2022/11/24 15:19:49;;;;;;;4.1;2.3;;;;;;;7.72;81.56836;937.2197;;;;
2022/11/24 15:22:14;;;;;;;4.1;2.8;;;;;;;7.54;82.88574;937.247;;;;
2022/11/24 15:24:41;;;;;;;7.4;3.7;;;;;;;7.33;83.94434;937.2863;;;;
2022/11/24 15:27:06;;;;;;;10.3;7.2;;;;;;;7.29;84.91016;937.1674;;;;
2022/11/24 15:29:32;;;;;;;7.6;5.2;;;;;;;7;86.95801;937.2932;;;;
2022/11/24 15:31:57;;;;;;;3.5;2.3;;;;;;;6.95;86.86035;937.3223;;;;
2022/11/24 15:34:22;;;;;;;4.1;2.8;;;;;;;6.73;87.69531;937.355;;;;
2022/11/24 15:36:49;;;;;;;3.2;2.4;;;;;;;6.71;88.34961;937.3903;;;;
2022/11/24 15:39:15;;;;;;;4.8;3;;;;;;;6.75;87.59863;937.4324;;;;
2022/11/24 15:41:40;;;;;;;3.2;2.8;;;;;;;6.74;87.81152;937.4534;;;;
2022/11/24 15:44:07;;;;;;;6.3;4.4;;;;;;;6.73;87.94434;937.5037;;;;
2022/11/24 15:46:36;;;;;;;6;3.7;;;;;;;6.64;87.76855;937.5597;;;;
2022/11/24 15:48:58;;;;;;;4.8;3.7;;;;;;;6.62;87.31055;937.5804;;;;
2022/11/24 15:51:24;;;;;;;6.5;4.6;;;;;;;6.54;87.01367;937.5397;;;;
2022/11/24 15:53:50;;;;;;;3.7;2.4;;;;;;;6.49;87.29492;937.5898;;;;
2022/11/24 15:56:18;;;;;;;5.8;4;;;;;;;6.29;88.62207;937.6392;;;;
2022/11/24 15:58:43;;;;;;;3.5;2.8;;;;;;;6.12;88.30566;937.6088;;;;
2022/11/24 16:01:08;;;;;;;6.1;3;;;;;;;6.12;88.96289;937.5765;;;;
2022/11/24 16:03:33;;;;;;;7.9;4.7;;;;;;;6.05;89.60156;937.6505;;;;
2022/11/24 16:05:59;;;;;;;13.1;7.2;;;;;;;6.04;88.74316;937.6624;;;;
2022/11/24 16:08:25;;;;;;;8.4;5.1;;;;;;;6;88.47363;937.6688;;;;
2022/11/24 16:10:51;;;;;;;8.1;6;;;;;;;5.96;88.41895;937.7025;;;;
2022/11/24 16:13:17;;;;;;;4.8;4.3;;;;;;;5.91;88.90723;937.6918;;;;
2022/11/24 16:15:46;;;;;;;5.7;4.3;;;;;;;5.76;89.40723;937.7529;;;;
2022/11/24 16:18:15;;;;;;;6.1;4.4;;;;;;;5.7;88.7041;937.7346;;;;
2022/11/24 16:20:39;;;;;;;7.2;4.9;;;;;;;5.72;88.87891;937.7446;;;;
2022/11/24 16:23:06;;;;;;;8.8;5.8;;;;;;;5.62;89.73828;937.7405;;;;
2022/11/24 16:25:31;;;;;;;8.5;5.6;;;;;;;5.61;89.39844;937.7472;;;;
2022/11/24 16:27:56;;;;;;;12.8;9;;;;;;;5.52;90.20313;937.8195;;;;
2022/11/24 16:30:21;;;;;;;11.5;8.8;;;;;;;5.5;89.99414;937.887;;;;
2022/11/24 16:32:48;;;;;;;8.3;6.7;;;;;;;5.52;89.6709;937.8463;;;;
2022/11/24 16:35:14;;;;;;;6.9;5.2;;;;;;;5.28;91.1123;937.8853;;;;
2022/11/24 16:37:41;;;;;;;20.2;11.5;;;;;;;5.25;91.35059;937.8132;;;;